sensor_id;sensor_type;location;lat;lon;timestamp;P1;durP1;ratioP1;P2;durP2;ratioP2
17967;SDS011;9109;48.050;11.696;2022-10-16T03:46:43;4.50;;;1.10;;
17967;SDS011;9109;48.050;11.696;2022-10-16T03:49:45;5.75;;;0.98;;
17967;SDS011;9109;48.050;11.696;2022-10-16T03:52:47;2.35;;;1.20;;
17967;SDS011;9109;48.050;11.696;2022-10-16T03:55:49;10.73;;;1.10;;
17967;SDS011;9109;48.050;11.696;2022-10-16T03:58:51;1.42;;;1.10;;
17967;SDS011;9109;48.050;11.696;2022-10-16T04:01:54;4.50;;;1.50;;
17967;SDS011;9109;48.050;11.696;2022-10-16T04:04:56;2.17;;;1.10;;
17967;SDS011;9109;48.050;11.696;2022-10-16T04:07:59;3.05;;;1.95;;
17967;SDS011;9109;48.050;11.696;2022-10-16T04:11:00;5.07;;;1.20;;
17967;SDS011;9109;48.050;11.696;2022-10-16T04:14:02;3.05;;;1.20;;
17967;SDS011;9109;48.050;11.696;2022-10-16T04:17:06;3.78;;;1.20;;
17967;SDS011;9109;48.050;11.696;2022-10-16T04:20:08;6.70;;;1.30;;
17967;SDS011;9109;48.050;11.696;2022-10-16T04:23:10;3.30;;;1.30;;
17967;SDS011;9109;48.050;11.696;2022-10-16T04:26:12;6.78;;;1.38;;
17967;SDS011;9109;48.050;11.696;2022-10-16T04:29:14;2.67;;;1.20;;
17967;SDS011;9109;48.050;11.696;2022-10-16T04:32:17;1.52;;;1.15;;
17967;SDS011;9109;48.050;11.696;2022-10-16T04:35:20;6.50;;;1.48;;
17967;SDS011;9109;48.050;11.696;2022-10-16T04:38:22;6.07;;;2.65;;
17967;SDS011;9109;48.050;11.696;2022-10-16T04:41:24;5.25;;;1.05;;
17967;SDS011;9109;48.050;11.696;2022-10-16T04:44:26;5.68;;;1.40;;
17967;SDS011;9109;48.050;11.696;2022-10-16T04:47:29;10.52;;;1.60;;
17967;SDS011;9109;48.050;11.696;2022-10-16T04:50:31;2.42;;;1.55;;
17967;SDS011;9109;48.050;11.696;2022-10-16T04:53:33;3.30;;;1.40;;
17967;SDS011;9109;48.050;11.696;2022-10-16T04:56:35;7.32;;;1.50;;
17967;SDS011;9109;48.050;11.696;2022-10-16T04:59:43;11.95;;;1.70;;
17967;SDS011;9109;48.050;11.696;2022-10-16T05:02:46;2.38;;;1.38;;
17967;SDS011;9109;48.050;11.696;2022-10-16T05:05:48;3.60;;;1.40;;
17967;SDS011;9109;48.050;11.696;2022-10-16T05:08:50;6.45;;;1.58;;
17967;SDS011;9109;48.050;11.696;2022-10-16T05:11:52;6.72;;;1.30;;
17967;SDS011;9109;48.050;11.696;2022-10-16T05:14:54;2.13;;;1.33;;
17967;SDS011;9109;48.050;11.696;2022-10-16T05:17:59;1.77;;;1.30;;
17967;SDS011;9109;48.050;11.696;2022-10-16T05:21:01;3.17;;;1.40;;
17967;SDS011;9109;48.050;11.696;2022-10-16T05:24:04;1.63;;;1.40;;
17967;SDS011;9109;48.050;11.696;2022-10-16T05:27:05;3.35;;;1.50;;
17967;SDS011;9109;48.050;11.696;2022-10-16T05:30:08;3.05;;;1.52;;
17967;SDS011;9109;48.050;11.696;2022-10-16T05:33:11;6.97;;;1.85;;
17967;SDS011;9109;48.050;11.696;2022-10-16T05:36:14;6.53;;;1.70;;
17967;SDS011;9109;48.050;11.696;2022-10-16T05:39:15;2.47;;;1.75;;
17967;SDS011;9109;48.050;11.696;2022-10-16T05:42:17;2.28;;;1.40;;
17967;SDS011;9109;48.050;11.696;2022-10-16T05:45:20;3.75;;;1.80;;
17967;SDS011;9109;48.050;11.696;2022-10-16T05:48:23;1.65;;;1.35;;
17967;SDS011;9109;48.050;11.696;2022-10-16T05:51:26;5.50;;;1.30;;
17967;SDS011;9109;48.050;11.696;2022-10-16T05:54:28;4.93;;;1.45;;
17967;SDS011;9109;48.050;11.696;2022-10-16T05:57:30;4.97;;;1.80;;
17967;SDS011;9109;48.050;11.696;2022-10-16T06:00:32;3.63;;;1.42;;
17967;SDS011;9109;48.050;11.696;2022-10-16T06:03:35;6.82;;;1.60;;
17967;SDS011;9109;48.050;11.696;2022-10-16T06:13:40;3.03;;;1.70;;
17967;SDS011;9109;48.050;11.696;2022-10-16T06:16:45;4.57;;;1.42;;
17967;SDS011;9109;48.050;11.696;2022-10-16T06:19:52;6.28;;;1.73;;
17967;SDS011;9109;48.050;11.696;2022-10-16T06:23:11;2.55;;;1.60;;
17967;SDS011;9109;48.050;11.696;2022-10-16T06:26:21;1.92;;;1.52;;
17967;SDS011;9109;48.050;11.696;2022-10-16T06:29:36;4.10;;;1.73;;
17967;SDS011;9109;48.050;11.696;2022-10-16T06:32:38;4.03;;;1.95;;
17967;SDS011;9109;48.050;11.696;2022-10-16T06:39:32;2.83;;;1.80;;
17967;SDS011;9109;48.050;11.696;2022-10-16T06:42:34;6.18;;;2.15;;
17967;SDS011;9109;48.050;11.696;2022-10-16T06:45:36;1.98;;;1.65;;
17967;SDS011;9109;48.050;11.696;2022-10-16T06:48:38;5.55;;;1.80;;
17967;SDS011;9109;48.050;11.696;2022-10-16T06:51:40;4.47;;;1.80;;
17967;SDS011;9109;48.050;11.696;2022-10-16T06:54:43;3.45;;;1.90;;
17967;SDS011;9109;48.050;11.696;2022-10-16T06:57:46;4.15;;;1.83;;
17967;SDS011;9109;48.050;11.696;2022-10-16T07:00:48;3.42;;;1.65;;
17967;SDS011;9109;48.050;11.696;2022-10-16T07:03:56;4.88;;;1.70;;
17967;SDS011;9109;48.050;11.696;2022-10-16T07:06:59;4.10;;;1.75;;
17967;SDS011;9109;48.050;11.696;2022-10-16T07:10:03;3.95;;;1.63;;
17967;SDS011;9109;48.050;11.696;2022-10-16T07:13:06;2.65;;;1.75;;
17967;SDS011;9109;48.050;11.696;2022-10-16T07:16:09;5.35;;;1.67;;
17967;SDS011;9109;48.050;11.696;2022-10-16T07:19:13;5.13;;;1.73;;
17967;SDS011;9109;48.050;11.696;2022-10-16T07:22:17;2.50;;;1.65;;
17967;SDS011;9109;48.050;11.696;2022-10-16T07:25:21;2.65;;;1.67;;
17967;SDS011;9109;48.050;11.696;2022-10-16T07:28:23;3.75;;;1.58;;
17967;SDS011;9109;48.050;11.696;2022-10-16T07:31:25;2.40;;;1.50;;
17967;SDS011;9109;48.050;11.696;2022-10-16T07:34:27;2.17;;;1.27;;
17967;SDS011;9109;48.050;11.696;2022-10-16T07:37:29;1.88;;;1.42;;
17967;SDS011;9109;48.050;11.696;2022-10-16T07:40:33;4.03;;;1.77;;
17967;SDS011;9109;48.050;11.696;2022-10-16T07:43:34;5.47;;;1.50;;
17967;SDS011;9109;48.050;11.696;2022-10-16T07:46:36;1.95;;;1.27;;
17967;SDS011;9109;48.050;11.696;2022-10-16T07:49:39;3.88;;;1.80;;
17967;SDS011;9109;48.050;11.696;2022-10-16T07:52:41;2.95;;;1.92;;
17967;SDS011;9109;48.050;11.696;2022-10-16T07:55:44;1.98;;;1.35;;
17967;SDS011;9109;48.050;11.696;2022-10-16T07:58:46;2.75;;;1.60;;
17967;SDS011;9109;48.050;11.696;2022-10-16T08:01:49;1.90;;;1.60;;
17967;SDS011;9109;48.050;11.696;2022-10-16T08:04:51;4.85;;;1.75;;
17967;SDS011;9109;48.050;11.696;2022-10-16T08:07:53;5.10;;;2.17;;
17967;SDS011;9109;48.050;11.696;2022-10-16T08:10:57;3.42;;;1.80;;
17967;SDS011;9109;48.050;11.696;2022-10-16T08:13:59;9.75;;;2.28;;
17967;SDS011;9109;48.050;11.696;2022-10-16T08:17:01;3.20;;;2.03;;
17967;SDS011;9109;48.050;11.696;2022-10-16T08:20:04;6.15;;;1.95;;
17967;SDS011;9109;48.050;11.696;2022-10-16T08:23:07;2.63;;;1.70;;
17967;SDS011;9109;48.050;11.696;2022-10-16T08:26:12;2.53;;;1.70;;
17967;SDS011;9109;48.050;11.696;2022-10-16T08:29:14;3.17;;;1.80;;
17967;SDS011;9109;48.050;11.696;2022-10-16T08:32:16;2.28;;;1.60;;
17967;SDS011;9109;48.050;11.696;2022-10-16T08:35:18;3.80;;;1.90;;
17967;SDS011;9109;48.050;11.696;2022-10-16T08:38:20;5.32;;;2.03;;
17967;SDS011;9109;48.050;11.696;2022-10-16T08:41:26;2.40;;;1.77;;
17967;SDS011;9109;48.050;11.696;2022-10-16T08:44:54;2.60;;;1.60;;
17967;SDS011;9109;48.050;11.696;2022-10-16T08:48:23;3.38;;;1.70;;
17967;SDS011;9109;48.050;11.696;2022-10-16T08:51:32;2.97;;;1.75;;
17967;SDS011;9109;48.050;11.696;2022-10-16T08:54:37;1.92;;;1.35;;
17967;SDS011;9109;48.050;11.696;2022-10-16T08:57:46;6.07;;;1.10;;
17967;SDS011;9109;48.050;11.696;2022-10-16T09:00:48;4.40;;;1.50;;
17967;SDS011;9109;48.050;11.696;2022-10-16T09:03:59;7.57;;;2.20;;
17967;SDS011;9109;48.050;11.696;2022-10-16T09:07:13;4.95;;;1.60;;
17967;SDS011;9109;48.050;11.696;2022-10-16T09:10:25;2.40;;;1.48;;
17967;SDS011;9109;48.050;11.696;2022-10-16T09:13:39;2.80;;;1.75;;
17967;SDS011;9109;48.050;11.696;2022-10-16T09:16:49;3.53;;;1.35;;
17967;SDS011;9109;48.050;11.696;2022-10-16T09:20:12;2.45;;;1.52;;
17967;SDS011;9109;48.050;11.696;2022-10-16T09:23:22;3.15;;;1.60;;
17967;SDS011;9109;48.050;11.696;2022-10-16T09:26:28;3.88;;;1.50;;
17967;SDS011;9109;48.050;11.696;2022-10-16T09:29:31;2.22;;;1.25;;
17967;SDS011;9109;48.050;11.696;2022-10-16T09:32:33;1.98;;;1.50;;
17967;SDS011;9109;48.050;11.696;2022-10-16T09:35:36;3.15;;;1.20;;
17967;SDS011;9109;48.050;11.696;2022-10-16T09:38:40;2.83;;;1.33;;
17967;SDS011;9109;48.050;11.696;2022-10-16T09:41:43;2.88;;;1.50;;
17967;SDS011;9109;48.050;11.696;2022-10-16T09:44:48;3.85;;;1.60;;
17967;SDS011;9109;48.050;11.696;2022-10-16T09:47:52;6.35;;;1.55;;
17967;SDS011;9109;48.050;11.696;2022-10-16T09:50:55;10.57;;;1.90;;
17967;SDS011;9109;48.050;11.696;2022-10-16T09:53:59;1.83;;;1.23;;
17967;SDS011;9109;48.050;11.696;2022-10-16T09:57:05;4.05;;;1.63;;
17967;SDS011;9109;48.050;11.696;2022-10-16T10:00:10;4.53;;;1.38;;
17967;SDS011;9109;48.050;11.696;2022-10-16T10:03:24;2.25;;;1.38;;
17967;SDS011;9109;48.050;11.696;2022-10-16T10:06:36;1.77;;;1.40;;
17967;SDS011;9109;48.050;11.696;2022-10-16T10:09:43;2.95;;;1.42;;
17967;SDS011;9109;48.050;11.696;2022-10-16T10:12:46;5.05;;;1.67;;
17967;SDS011;9109;48.050;11.696;2022-10-16T10:15:50;1.63;;;1.35;;
17967;SDS011;9109;48.050;11.696;2022-10-16T10:18:57;3.78;;;1.33;;
17967;SDS011;9109;48.050;11.696;2022-10-16T10:21:59;1.65;;;1.33;;
17967;SDS011;9109;48.050;11.696;2022-10-16T10:25:12;2.08;;;1.25;;
17967;SDS011;9109;48.050;11.696;2022-10-16T10:28:29;2.03;;;1.35;;
17967;SDS011;9109;48.050;11.696;2022-10-16T10:31:48;3.72;;;1.10;;
17967;SDS011;9109;48.050;11.696;2022-10-16T10:34:57;5.55;;;1.33;;
17967;SDS011;9109;48.050;11.696;2022-10-16T10:38:12;1.92;;;1.38;;
17967;SDS011;9109;48.050;11.696;2022-10-16T10:45:17;1.58;;;1.25;;
17967;SDS011;9109;48.050;11.696;2022-10-16T10:48:38;3.08;;;1.25;;
17967;SDS011;9109;48.050;11.696;2022-10-16T10:51:58;3.05;;;1.40;;
17967;SDS011;9109;48.050;11.696;2022-10-16T10:55:09;1.80;;;1.20;;
17967;SDS011;9109;48.050;11.696;2022-10-16T10:58:24;3.03;;;1.30;;
17967;SDS011;9109;48.050;11.696;2022-10-16T11:01:39;1.75;;;1.10;;
17967;SDS011;9109;48.050;11.696;2022-10-16T11:04:49;4.50;;;1.02;;
17967;SDS011;9109;48.050;11.696;2022-10-16T11:08:11;1.27;;;1.00;;
17967;SDS011;9109;48.050;11.696;2022-10-16T11:11:20;3.30;;;0.95;;
17967;SDS011;9109;48.050;11.696;2022-10-16T11:14:28;0.70;;;0.70;;
17967;SDS011;9109;48.050;11.696;2022-10-16T11:17:36;1.88;;;0.90;;
17967;SDS011;9109;48.050;11.696;2022-10-16T11:20:44;0.77;;;0.60;;
17967;SDS011;9109;48.050;11.696;2022-10-16T11:23:52;3.80;;;0.80;;
17967;SDS011;9109;48.050;11.696;2022-10-16T11:26:57;1.15;;;0.70;;
17967;SDS011;9109;48.050;11.696;2022-10-16T11:30:05;2.25;;;0.70;;
17967;SDS011;9109;48.050;11.696;2022-10-16T11:33:23;3.67;;;0.60;;
17967;SDS011;9109;48.050;11.696;2022-10-16T11:36:35;1.25;;;0.75;;
17967;SDS011;9109;48.050;11.696;2022-10-16T11:39:40;1.77;;;0.50;;
17967;SDS011;9109;48.050;11.696;2022-10-16T11:42:46;1.35;;;0.73;;
17967;SDS011;9109;48.050;11.696;2022-10-16T11:45:53;2.13;;;0.77;;
17967;SDS011;9109;48.050;11.696;2022-10-16T11:49:00;2.58;;;0.77;;
17967;SDS011;9109;48.050;11.696;2022-10-16T11:52:12;4.53;;;0.80;;
17967;SDS011;9109;48.050;11.696;2022-10-16T11:55:18;0.60;;;0.50;;
17967;SDS011;9109;48.050;11.696;2022-10-16T11:58:24;6.10;;;1.10;;
17967;SDS011;9109;48.050;11.696;2022-10-16T12:01:31;2.90;;;0.88;;
17967;SDS011;9109;48.050;11.696;2022-10-16T12:04:41;1.23;;;0.80;;
17967;SDS011;9109;48.050;11.696;2022-10-16T12:07:51;0.73;;;0.65;;
17967;SDS011;9109;48.050;11.696;2022-10-16T12:11:08;1.55;;;0.80;;
17967;SDS011;9109;48.050;11.696;2022-10-16T12:14:34;3.38;;;0.80;;
17967;SDS011;9109;48.050;11.696;2022-10-16T12:17:39;1.00;;;0.77;;
17967;SDS011;9109;48.050;11.696;2022-10-16T12:20:41;3.55;;;0.80;;
17967;SDS011;9109;48.050;11.696;2022-10-16T12:23:48;0.82;;;0.65;;
17967;SDS011;9109;48.050;11.696;2022-10-16T12:26:52;2.35;;;0.75;;
17967;SDS011;9109;48.050;11.696;2022-10-16T12:29:55;4.88;;;0.60;;
17967;SDS011;9109;48.050;11.696;2022-10-16T12:32:58;1.02;;;0.70;;
17967;SDS011;9109;48.050;11.696;2022-10-16T12:36:03;0.77;;;0.60;;
17967;SDS011;9109;48.050;11.696;2022-10-16T12:39:19;3.42;;;0.88;;
17967;SDS011;9109;48.050;11.696;2022-10-16T12:42:30;2.03;;;0.88;;
17967;SDS011;9109;48.050;11.696;2022-10-16T12:45:34;6.95;;;1.13;;
17967;SDS011;9109;48.050;11.696;2022-10-16T12:48:36;2.95;;;0.82;;
17967;SDS011;9109;48.050;11.696;2022-10-16T12:51:40;0.93;;;0.80;;
17967;SDS011;9109;48.050;11.696;2022-10-16T12:54:44;4.10;;;0.73;;
17967;SDS011;9109;48.050;11.696;2022-10-16T12:57:49;3.03;;;1.00;;
17967;SDS011;9109;48.050;11.696;2022-10-16T13:01:03;2.35;;;0.90;;
17967;SDS011;9109;48.050;11.696;2022-10-16T13:04:29;2.25;;;0.90;;
17967;SDS011;9109;48.050;11.696;2022-10-16T13:07:50;2.95;;;0.80;;
17967;SDS011;9109;48.050;11.696;2022-10-16T13:11:03;2.35;;;0.80;;
17967;SDS011;9109;48.050;11.696;2022-10-16T13:14:16;2.45;;;1.00;;
17967;SDS011;9109;48.050;11.696;2022-10-16T13:17:35;1.35;;;0.95;;
17967;SDS011;9109;48.050;11.696;2022-10-16T13:20:52;1.67;;;0.73;;
17967;SDS011;9109;48.050;11.696;2022-10-16T13:24:10;2.78;;;0.65;;
17967;SDS011;9109;48.050;11.696;2022-10-16T13:27:23;4.78;;;1.27;;
17967;SDS011;9109;48.050;11.696;2022-10-16T13:30:36;2.40;;;1.20;;
17967;SDS011;9109;48.050;11.696;2022-10-16T13:33:41;3.13;;;0.70;;
17967;SDS011;9109;48.050;11.696;2022-10-16T13:36:48;3.78;;;0.80;;
17967;SDS011;9109;48.050;11.696;2022-10-16T13:40:01;6.93;;;0.60;;
17967;SDS011;9109;48.050;11.696;2022-10-16T13:43:14;5.45;;;0.90;;
17967;SDS011;9109;48.050;11.696;2022-10-16T13:46:17;2.40;;;1.00;;
17967;SDS011;9109;48.050;11.696;2022-10-16T13:49:21;1.23;;;0.80;;
17967;SDS011;9109;48.050;11.696;2022-10-16T13:52:22;1.45;;;0.70;;
17967;SDS011;9109;48.050;11.696;2022-10-16T13:55:24;1.10;;;0.73;;
17967;SDS011;9109;48.050;11.696;2022-10-16T13:58:28;2.10;;;0.70;;
17967;SDS011;9109;48.050;11.696;2022-10-16T14:01:30;1.83;;;0.70;;
17967;SDS011;9109;48.050;11.696;2022-10-16T14:04:33;1.25;;;0.73;;
17967;SDS011;9109;48.050;11.696;2022-10-16T14:07:40;0.93;;;0.60;;
17967;SDS011;9109;48.050;11.696;2022-10-16T14:10:42;1.23;;;0.60;;
17967;SDS011;9109;48.050;11.696;2022-10-16T14:13:51;0.55;;;0.55;;
17967;SDS011;9109;48.050;11.696;2022-10-16T14:16:54;2.05;;;0.80;;
17967;SDS011;9109;48.050;11.696;2022-10-16T14:19:57;1.20;;;0.75;;
17967;SDS011;9109;48.050;11.696;2022-10-16T14:23:01;3.50;;;0.60;;
17967;SDS011;9109;48.050;11.696;2022-10-16T14:26:14;1.38;;;0.80;;
17967;SDS011;9109;48.050;11.696;2022-10-16T14:29:19;0.73;;;0.70;;
17967;SDS011;9109;48.050;11.696;2022-10-16T14:32:22;1.63;;;0.73;;
17967;SDS011;9109;48.050;11.696;2022-10-16T14:35:28;3.05;;;0.60;;
17967;SDS011;9109;48.050;11.696;2022-10-16T14:38:31;3.42;;;0.60;;
17967;SDS011;9109;48.050;11.696;2022-10-16T14:41:40;2.08;;;0.80;;
17967;SDS011;9109;48.050;11.696;2022-10-16T14:44:47;1.10;;;0.70;;
17967;SDS011;9109;48.050;11.696;2022-10-16T14:47:51;1.13;;;0.60;;
17967;SDS011;9109;48.050;11.696;2022-10-16T14:50:55;1.25;;;0.77;;
17967;SDS011;9109;48.050;11.696;2022-10-16T14:53:57;1.50;;;0.90;;
17967;SDS011;9109;48.050;11.696;2022-10-16T14:56:59;4.50;;;0.90;;
17967;SDS011;9109;48.050;11.696;2022-10-16T15:00:02;0.70;;;0.70;;
17967;SDS011;9109;48.050;11.696;2022-10-16T15:03:05;3.28;;;0.77;;
17967;SDS011;9109;48.050;11.696;2022-10-16T15:06:08;0.82;;;0.75;;
17967;SDS011;9109;48.050;11.696;2022-10-16T15:09:11;2.75;;;0.95;;
17967;SDS011;9109;48.050;11.696;2022-10-16T15:12:14;4.35;;;0.80;;
17967;SDS011;9109;48.050;11.696;2022-10-16T15:15:28;3.13;;;1.20;;
17967;SDS011;9109;48.050;11.696;2022-10-16T15:18:35;1.50;;;1.02;;
17967;SDS011;9109;48.050;11.696;2022-10-16T15:21:38;4.00;;;0.80;;
17967;SDS011;9109;48.050;11.696;2022-10-16T15:24:40;1.73;;;0.82;;
17967;SDS011;9109;48.050;11.696;2022-10-16T15:27:42;1.20;;;0.82;;
17967;SDS011;9109;48.050;11.696;2022-10-16T15:30:45;5.25;;;1.00;;
17967;SDS011;9109;48.050;11.696;2022-10-16T15:33:50;6.57;;;0.70;;
17967;SDS011;9109;48.050;11.696;2022-10-16T15:36:53;2.78;;;1.65;;
17967;SDS011;9109;48.050;11.696;2022-10-16T15:39:57;1.92;;;0.75;;
17967;SDS011;9109;48.050;11.696;2022-10-16T15:42:59;5.70;;;1.17;;
17967;SDS011;9109;48.050;11.696;2022-10-16T15:46:03;4.28;;;0.88;;
17967;SDS011;9109;48.050;11.696;2022-10-16T15:49:08;11.38;;;1.20;;
17967;SDS011;9109;48.050;11.696;2022-10-16T15:52:11;2.15;;;1.40;;
17967;SDS011;9109;48.050;11.696;2022-10-16T15:55:13;1.80;;;1.33;;
17967;SDS011;9109;48.050;11.696;2022-10-16T15:58:15;1.70;;;1.15;;
17967;SDS011;9109;48.050;11.696;2022-10-16T16:01:19;3.15;;;1.30;;
17967;SDS011;9109;48.050;11.696;2022-10-16T16:04:21;3.60;;;1.20;;
17967;SDS011;9109;48.050;11.696;2022-10-16T16:07:23;1.85;;;1.20;;
17967;SDS011;9109;48.050;11.696;2022-10-16T16:10:25;4.00;;;1.50;;
17967;SDS011;9109;48.050;11.696;2022-10-16T16:13:27;4.80;;;1.38;;
17967;SDS011;9109;48.050;11.696;2022-10-16T16:16:30;3.55;;;1.70;;
17967;SDS011;9109;48.050;11.696;2022-10-16T16:19:36;3.25;;;1.88;;
17967;SDS011;9109;48.050;11.696;2022-10-16T16:22:38;5.18;;;1.60;;
17967;SDS011;9109;48.050;11.696;2022-10-16T16:25:40;7.63;;;1.73;;
17967;SDS011;9109;48.050;11.696;2022-10-16T16:28:42;5.03;;;2.17;;
17967;SDS011;9109;48.050;11.696;2022-10-16T16:31:46;2.00;;;1.00;;
17967;SDS011;9109;48.050;11.696;2022-10-16T16:34:48;1.85;;;1.33;;
17967;SDS011;9109;48.050;11.696;2022-10-16T16:37:50;5.07;;;1.15;;
17967;SDS011;9109;48.050;11.696;2022-10-16T16:40:51;4.05;;;1.17;;
17967;SDS011;9109;48.050;11.696;2022-10-16T16:43:53;10.13;;;2.33;;
17967;SDS011;9109;48.050;11.696;2022-10-16T16:46:57;2.95;;;1.90;;
17967;SDS011;9109;48.050;11.696;2022-10-16T16:49:59;4.78;;;2.05;;
17967;SDS011;9109;48.050;11.696;2022-10-16T16:53:04;3.28;;;1.52;;
17967;SDS011;9109;48.050;11.696;2022-10-16T16:56:06;5.53;;;1.80;;
17967;SDS011;9109;48.050;11.696;2022-10-16T16:59:10;1.80;;;1.45;;
17967;SDS011;9109;48.050;11.696;2022-10-16T17:02:16;5.45;;;1.75;;
17967;SDS011;9109;48.050;11.696;2022-10-16T17:05:17;9.00;;;1.80;;
17967;SDS011;9109;48.050;11.696;2022-10-16T17:08:19;6.03;;;1.38;;
17967;SDS011;9109;48.050;11.696;2022-10-16T17:11:22;8.43;;;2.28;;
17967;SDS011;9109;48.050;11.696;2022-10-16T17:14:26;4.43;;;1.90;;
17967;SDS011;9109;48.050;11.696;2022-10-16T17:17:29;5.57;;;2.22;;
17967;SDS011;9109;48.050;11.696;2022-10-16T17:20:31;10.55;;;2.85;;
17967;SDS011;9109;48.050;11.696;2022-10-16T17:23:36;6.65;;;2.30;;
17967;SDS011;9109;48.050;11.696;2022-10-16T17:26:39;6.43;;;2.13;;
17967;SDS011;9109;48.050;11.696;2022-10-16T17:29:43;8.18;;;1.80;;
17967;SDS011;9109;48.050;11.696;2022-10-16T17:32:47;3.42;;;1.63;;
17967;SDS011;9109;48.050;11.696;2022-10-16T17:35:49;7.90;;;1.90;;
17967;SDS011;9109;48.050;11.696;2022-10-16T17:38:50;13.82;;;1.55;;
17967;SDS011;9109;48.050;11.696;2022-10-16T17:41:52;3.95;;;1.55;;
17967;SDS011;9109;48.050;11.696;2022-10-16T17:44:54;2.80;;;1.67;;
17967;SDS011;9109;48.050;11.696;2022-10-16T17:47:58;14.98;;;2.40;;
17967;SDS011;9109;48.050;11.696;2022-10-16T17:51:02;12.82;;;2.00;;
17967;SDS011;9109;48.050;11.696;2022-10-16T17:54:05;23.10;;;2.65;;
17967;SDS011;9109;48.050;11.696;2022-10-16T17:57:07;6.40;;;1.80;;
17967;SDS011;9109;48.050;11.696;2022-10-16T18:00:09;3.03;;;1.60;;
17967;SDS011;9109;48.050;11.696;2022-10-16T18:03:13;13.88;;;2.00;;
17967;SDS011;9109;48.050;11.696;2022-10-16T18:06:15;10.30;;;2.05;;
17967;SDS011;9109;48.050;11.696;2022-10-16T18:09:17;9.45;;;2.08;;
17967;SDS011;9109;48.050;11.696;2022-10-16T18:12:23;5.72;;;2.17;;
17967;SDS011;9109;48.050;11.696;2022-10-16T18:15:25;8.18;;;2.05;;
17967;SDS011;9109;48.050;11.696;2022-10-16T18:18:28;4.80;;;2.22;;
17967;SDS011;9109;48.050;11.696;2022-10-16T18:21:31;9.02;;;2.00;;
17967;SDS011;9109;48.050;11.696;2022-10-16T18:24:34;3.80;;;1.58;;
17967;SDS011;9109;48.050;11.696;2022-10-16T18:27:36;7.85;;;1.70;;
17967;SDS011;9109;48.050;11.696;2022-10-16T18:30:38;3.75;;;1.80;;
17967;SDS011;9109;48.050;11.696;2022-10-16T18:33:42;4.85;;;1.63;;
17967;SDS011;9109;48.050;11.696;2022-10-16T18:36:50;4.10;;;1.75;;
17967;SDS011;9109;48.050;11.696;2022-10-16T18:39:54;12.63;;;2.38;;
17967;SDS011;9109;48.050;11.696;2022-10-16T18:42:55;17.00;;;3.13;;
17967;SDS011;9109;48.050;11.696;2022-10-16T18:45:58;11.52;;;3.00;;
17967;SDS011;9109;48.050;11.696;2022-10-16T18:49:02;4.78;;;2.50;;
17967;SDS011;9109;48.050;11.696;2022-10-16T18:52:04;11.68;;;2.40;;
17967;SDS011;9109;48.050;11.696;2022-10-16T18:55:07;5.68;;;2.45;;
17967;SDS011;9109;48.050;11.696;2022-10-16T18:58:09;20.02;;;2.80;;
17967;SDS011;9109;48.050;11.696;2022-10-16T19:01:12;8.70;;;2.92;;
17967;SDS011;9109;48.050;11.696;2022-10-16T19:04:17;13.23;;;3.08;;
17967;SDS011;9109;48.050;11.696;2022-10-16T19:07:20;5.70;;;2.65;;
17967;SDS011;9109;48.050;11.696;2022-10-16T19:10:22;12.80;;;2.63;;
17967;SDS011;9109;48.050;11.696;2022-10-16T19:13:24;10.60;;;3.30;;
17967;SDS011;9109;48.050;11.696;2022-10-16T19:16:26;10.57;;;2.90;;
17967;SDS011;9109;48.050;11.696;2022-10-16T19:19:33;13.13;;;2.70;;
17967;SDS011;9109;48.050;11.696;2022-10-16T19:22:37;5.45;;;2.60;;
17967;SDS011;9109;48.050;11.696;2022-10-16T19:25:53;3.40;;;2.25;;
17967;SDS011;9109;48.050;11.696;2022-10-16T19:28:55;9.00;;;2.65;;
17967;SDS011;9109;48.050;11.696;2022-10-16T19:31:58;12.60;;;3.22;;
17967;SDS011;9109;48.050;11.696;2022-10-16T19:35:03;6.30;;;2.35;;
17967;SDS011;9109;48.050;11.696;2022-10-16T19:38:06;8.68;;;2.45;;
17967;SDS011;9109;48.050;11.696;2022-10-16T19:41:09;6.30;;;2.10;;
17967;SDS011;9109;48.050;11.696;2022-10-16T19:44:13;7.63;;;2.67;;
17967;SDS011;9109;48.050;11.696;2022-10-16T19:47:16;9.98;;;2.78;;
17967;SDS011;9109;48.050;11.696;2022-10-16T19:50:19;7.20;;;2.75;;
17967;SDS011;9109;48.050;11.696;2022-10-16T19:53:21;12.38;;;2.90;;
17967;SDS011;9109;48.050;11.696;2022-10-16T19:56:24;7.35;;;2.38;;
17967;SDS011;9109;48.050;11.696;2022-10-16T19:59:27;10.93;;;2.85;;
17967;SDS011;9109;48.050;11.696;2022-10-16T20:02:29;14.43;;;2.50;;
17967;SDS011;9109;48.050;11.696;2022-10-16T20:05:33;4.03;;;2.50;;
17967;SDS011;9109;48.050;11.696;2022-10-16T20:08:39;8.55;;;2.30;;
17967;SDS011;9109;48.050;11.696;2022-10-16T20:11:44;7.18;;;2.15;;
17967;SDS011;9109;48.050;11.696;2022-10-16T20:14:46;5.32;;;2.20;;
17967;SDS011;9109;48.050;11.696;2022-10-16T20:17:48;6.43;;;2.72;;
17967;SDS011;9109;48.050;11.696;2022-10-16T20:20:54;7.30;;;2.45;;
17967;SDS011;9109;48.050;11.696;2022-10-16T20:27:06;11.88;;;2.63;;
17967;SDS011;9109;48.050;11.696;2022-10-16T20:30:25;16.73;;;2.40;;
17967;SDS011;9109;48.050;11.696;2022-10-16T20:33:27;11.55;;;2.20;;
17967;SDS011;9109;48.050;11.696;2022-10-16T20:36:40;8.23;;;2.40;;
17967;SDS011;9109;48.050;11.696;2022-10-16T20:39:56;4.47;;;2.20;;
17967;SDS011;9109;48.050;11.696;2022-10-16T20:43:00;5.03;;;2.00;;
17967;SDS011;9109;48.050;11.696;2022-10-16T20:46:05;5.72;;;2.00;;
17967;SDS011;9109;48.050;11.696;2022-10-16T20:49:09;15.23;;;2.30;;
17967;SDS011;9109;48.050;11.696;2022-10-16T20:52:12;3.42;;;1.77;;
17967;SDS011;9109;48.050;11.696;2022-10-16T20:55:21;7.80;;;2.00;;
17967;SDS011;9109;48.050;11.696;2022-10-16T20:58:23;5.93;;;1.98;;
17967;SDS011;9109;48.050;11.696;2022-10-16T21:01:26;10.15;;;1.92;;
17967;SDS011;9109;48.050;11.696;2022-10-16T21:04:30;3.33;;;1.85;;
17967;SDS011;9109;48.050;11.696;2022-10-16T21:07:33;9.98;;;1.95;;
17967;SDS011;9109;48.050;11.696;2022-10-16T21:10:35;9.93;;;1.88;;
17967;SDS011;9109;48.050;11.696;2022-10-16T21:13:37;3.35;;;1.58;;
17967;SDS011;9109;48.050;11.696;2022-10-16T21:16:39;8.82;;;1.92;;
17967;SDS011;9109;48.050;11.696;2022-10-16T21:19:44;10.80;;;1.85;;
17967;SDS011;9109;48.050;11.696;2022-10-16T21:22:47;3.40;;;2.10;;
17967;SDS011;9109;48.050;11.696;2022-10-16T21:25:49;4.63;;;2.00;;
17967;SDS011;9109;48.050;11.696;2022-10-16T21:28:51;5.20;;;1.90;;
17967;SDS011;9109;48.050;11.696;2022-10-16T21:31:54;10.40;;;2.20;;
17967;SDS011;9109;48.050;11.696;2022-10-16T21:34:56;9.90;;;2.20;;
17967;SDS011;9109;48.050;11.696;2022-10-16T21:37:59;5.93;;;2.05;;
17967;SDS011;9109;48.050;11.696;2022-10-16T21:41:10;3.05;;;1.88;;
17967;SDS011;9109;48.050;11.696;2022-10-16T21:44:12;5.75;;;2.00;;
17967;SDS011;9109;48.050;11.696;2022-10-16T21:47:15;6.72;;;2.40;;
17967;SDS011;9109;48.050;11.696;2022-10-16T21:50:17;8.90;;;2.50;;
17967;SDS011;9109;48.050;11.696;2022-10-16T21:53:20;7.43;;;2.58;;
17967;SDS011;9109;48.050;11.696;2022-10-16T21:56:22;9.13;;;2.78;;
17967;SDS011;9109;48.050;11.696;2022-10-16T21:59:24;5.55;;;2.10;;
17967;SDS011;9109;48.050;11.696;2022-10-16T22:02:26;4.60;;;1.95;;
17967;SDS011;9109;48.050;11.696;2022-10-16T22:05:32;10.65;;;2.20;;
17967;SDS011;9109;48.050;11.696;2022-10-16T22:08:37;10.02;;;2.08;;
17967;SDS011;9109;48.050;11.696;2022-10-16T22:11:40;5.18;;;2.30;;
17967;SDS011;9109;48.050;11.696;2022-10-16T22:14:45;7.35;;;2.22;;
17967;SDS011;9109;48.050;11.696;2022-10-16T22:17:47;7.32;;;2.00;;
17967;SDS011;9109;48.050;11.696;2022-10-16T22:20:49;7.72;;;2.58;;
17967;SDS011;9109;48.050;11.696;2022-10-16T22:23:53;4.78;;;1.95;;
17967;SDS011;9109;48.050;11.696;2022-10-16T22:26:55;9.43;;;1.80;;
17967;SDS011;9109;48.050;11.696;2022-10-16T22:30:00;3.42;;;2.25;;
17967;SDS011;9109;48.050;11.696;2022-10-16T22:33:05;8.05;;;2.03;;
17967;SDS011;9109;48.050;11.696;2022-10-16T22:36:10;9.02;;;2.17;;